Time;durP1;ratioP1;P1;durP2;ratioP2;P2;SDS_P1;SDS_P2;PMS_P1;PMS_P2;Temp;Humidity;BMP_temperature;BMP_pressure;BME280_temperature;BME280_humidity;BME280_pressure;Samples;Min_cycle;Max_cycle;Signal;HPM_P1;HPM_P2
2022/03/26 00:02:19;;;;;;;71.35;34.38;;;;;;;;;;5056198;28;20076;-64
2022/03/26 00:04:45;;;;;;;70.88;33.35;;;;;;;;;;5073837;28;20123;-64
2022/03/26 00:07:11;;;;;;;64.45;31.52;;;;;;;;;;5073892;28;20094;-64
2022/03/26 00:09:37;;;;;;;66.70;31.63;;;;;;;;;;5055776;28;20044;-63
2022/03/26 00:12:03;;;;;;;66.43;31.63;;;;;;;;;;5056612;28;20052;-63
2022/03/26 00:14:32;;;;;;;69.13;32.30;;;;;;;;;;5073397;28;20040;-64
2022/03/26 00:16:57;;;;;;;65.65;32.47;;;;;;;;;;5039528;28;20414;-64
2022/03/26 00:19:23;;;;;;;62.28;29.85;;;;;;;;;;5056174;28;20070;-64
2022/03/26 00:21:50;;;;;;;68.13;32.65;;;;;;;;;;5075981;28;20383;-64
2022/03/26 00:24:16;;;;;;;64.53;29.02;;;;;;;;;;5037952;28;20384;-64
2022/03/26 00:26:42;;;;;;;63.17;30.75;;;;;;;;;;5055568;28;20046;-65
2022/03/26 00:32:08;;;;;;;67.57;33.63;;;;;;;;;;5034155;28;20052;-63
2022/03/26 00:34:34;;;;;;;68.28;32.85;;;;;;;;;;5035857;28;20044;-63
2022/03/26 00:37:01;;;;;;;70.47;31.90;;;;;;;;;;5053702;28;20489;-63
2022/03/26 00:39:27;;;;;;;62.92;30.33;;;;;;;;;;5035897;28;20115;-63
2022/03/26 00:41:53;;;;;;;76.22;36.15;;;;;;;;;;5019203;28;20048;-63
2022/03/26 00:44:20;;;;;;;70.75;33.28;;;;;;;;;;5019316;28;20052;-63
2022/03/26 00:46:46;;;;;;;73.97;33.42;;;;;;;;;;5035715;28;20166;-63
2022/03/26 00:49:16;;;;;;;80.60;35.83;;;;;;;;;;5035228;28;20507;-64
2022/03/26 00:51:42;;;;;;;76.65;35.65;;;;;;;;;;5035370;28;20480;-64
2022/03/26 00:54:11;;;;;;;72.10;34.25;;;;;;;;;;5052559;28;20049;-64
2022/03/26 00:56:37;;;;;;;69.63;34.17;;;;;;;;;;5034854;28;20439;-63
2022/03/26 00:59:04;;;;;;;76.25;34.33;;;;;;;;;;5035003;28;20049;-64
2022/03/26 01:01:31;;;;;;;84.93;39.13;;;;;;;;;;5053053;28;20040;-63
2022/03/26 01:03:57;;;;;;;93.85;41.38;;;;;;;;;;5034432;28;20047;-65
2022/03/26 01:06:23;;;;;;;79.80;38.88;;;;;;;;;;5033878;28;20049;-65
2022/03/26 01:08:49;;;;;;;85.72;39.03;;;;;;;;;;5034604;28;20091;-65
2022/03/26 01:11:17;;;;;;;82.85;38.58;;;;;;;;;;5034942;28;20048;-64
2022/03/26 01:13:43;;;;;;;91.65;42.10;;;;;;;;;;5018412;28;20546;-64
2022/03/26 01:16:09;;;;;;;85.57;40.08;;;;;;;;;;5018123;28;20048;-65
2022/03/26 01:18:36;;;;;;;85.85;39.60;;;;;;;;;;5034683;28;20045;-64
2022/03/26 01:21:02;;;;;;;98.90;42.90;;;;;;;;;;5018164;28;20041;-65
2022/03/26 01:23:28;;;;;;;90.80;43.22;;;;;;;;;;5052295;28;20535;-64
2022/03/26 01:25:54;;;;;;;93.25;43.03;;;;;;;;;;5034669;28;20135;-65
2022/03/26 01:28:20;;;;;;;97.82;44.70;;;;;;;;;;5018425;28;20124;-64
2022/03/26 01:30:46;;;;;;;98.90;44.05;;;;;;;;;;5034209;28;20048;-64
2022/03/26 01:33:12;;;;;;;98.70;43.40;;;;;;;;;;5052845;28;20444;-64
2022/03/26 01:35:39;;;;;;;97.07;43.10;;;;;;;;;;5017866;28;20041;-64
2022/03/26 01:38:06;;;;;;;100.35;45.67;;;;;;;;;;5051819;28;20048;-64
2022/03/26 01:40:32;;;;;;;99.47;43.72;;;;;;;;;;5036740;28;20060;-64
2022/03/26 01:42:59;;;;;;;91.13;40.70;;;;;;;;;;5040850;28;20045;-65
2022/03/26 01:45:27;;;;;;;100.35;42.33;;;;;;;;;;5059169;28;20056;-64
2022/03/26 01:47:53;;;;;;;95.65;43.08;;;;;;;;;;5041325;28;20049;-64
2022/03/26 01:50:19;;;;;;;111.35;45.95;;;;;;;;;;5041031;28;20119;-66
2022/03/26 01:52:45;;;;;;;98.57;44.28;;;;;;;;;;5058767;28;20083;-65
2022/03/26 01:55:11;;;;;;;98.07;43.63;;;;;;;;;;5041231;28;20040;-64
2022/03/26 01:57:38;;;;;;;94.93;41.95;;;;;;;;;;5040855;28;20503;-64
2022/03/26 02:00:05;;;;;;;100.95;43.10;;;;;;;;;;5024458;28;20080;-64
2022/03/26 02:02:33;;;;;;;94.20;42.40;;;;;;;;;;5058911;28;20045;-65
2022/03/26 02:04:59;;;;;;;103.28;44.17;;;;;;;;;;5024404;28;20044;-64
2022/03/26 02:07:25;;;;;;;99.75;44.03;;;;;;;;;;5040491;28;20476;-63
2022/03/26 02:09:51;;;;;;;101.15;45.10;;;;;;;;;;5040388;28;20106;-64
2022/03/26 02:12:27;;;;;;;92.78;41.17;;;;;;;;;;5041029;28;20041;-63
2022/03/26 02:14:54;;;;;;;100.82;43.75;;;;;;;;;;5024098;28;20102;-65
2022/03/26 02:17:20;;;;;;;99.13;44.22;;;;;;;;;;5023801;28;20060;-64
2022/03/26 02:19:53;;;;;;;100.70;45.00;;;;;;;;;;5024369;28;20033;-64
2022/03/26 02:22:20;;;;;;;95.65;42.85;;;;;;;;;;5024214;28;20473;-64
2022/03/26 02:24:46;;;;;;;102.63;45.25;;;;;;;;;;5040431;28;20040;-64
2022/03/26 02:27:12;;;;;;;102.22;46.08;;;;;;;;;;5058318;28;20072;-64
2022/03/26 02:29:39;;;;;;;108.05;45.65;;;;;;;;;;5037356;28;20048;-65
2022/03/26 02:32:05;;;;;;;108.57;46.55;;;;;;;;;;5040610;28;20057;-64
2022/03/26 02:34:31;;;;;;;119.03;46.92;;;;;;;;;;5024106;28;20499;-64
2022/03/26 02:36:58;;;;;;;103.55;45.20;;;;;;;;;;5058383;28;20041;-64
2022/03/26 02:39:25;;;;;;;98.93;42.35;;;;;;;;;;5057877;28;20477;-65
2022/03/26 02:41:51;;;;;;;112.68;45.03;;;;;;;;;;5040434;28;20040;-64
2022/03/26 02:44:17;;;;;;;113.10;46.78;;;;;;;;;;5023979;28;20040;-64
2022/03/26 02:46:45;;;;;;;108.90;47.67;;;;;;;;;;5023917;28;20044;-64
2022/03/26 02:49:12;;;;;;;111.35;46.55;;;;;;;;;;5040653;28;20124;-64
2022/03/26 02:51:38;;;;;;;111.95;45.50;;;;;;;;;;5038799;28;20037;-65
2022/03/26 02:54:05;;;;;;;111.18;48.47;;;;;;;;;;5020443;28;20041;-64
2022/03/26 02:56:31;;;;;;;120.03;50.67;;;;;;;;;;5037562;28;20041;-64
2022/03/26 02:58:57;;;;;;;116.03;48.28;;;;;;;;;;5020334;28;20388;-66
2022/03/26 03:01:23;;;;;;;126.28;53.00;;;;;;;;;;5020593;28;20094;-65
2022/03/26 03:03:50;;;;;;;115.82;50.08;;;;;;;;;;5020950;28;20037;-65
2022/03/26 03:06:16;;;;;;;128.90;51.45;;;;;;;;;;5036817;28;20045;-65
2022/03/26 03:08:43;;;;;;;125.47;51.05;;;;;;;;;;5054734;28;20496;-65
2022/03/26 03:11:09;;;;;;;117.55;50.05;;;;;;;;;;5036949;28;20389;-65
2022/03/26 03:13:36;;;;;;;113.32;46.92;;;;;;;;;;5036668;28;20509;-64
2022/03/26 03:16:02;;;;;;;119.05;51.40;;;;;;;;;;5036796;28;20064;-64
2022/03/26 03:18:28;;;;;;;119.70;49.88;;;;;;;;;;5054587;28;20048;-64
2022/03/26 03:20:54;;;;;;;127.45;53.15;;;;;;;;;;5054827;28;20056;-64
2022/03/26 03:23:20;;;;;;;127.78;52.72;;;;;;;;;;5001006;28;20037;-65
2022/03/26 03:25:46;;;;;;;129.30;53.30;;;;;;;;;;5032922;28;20036;-64
2022/03/26 03:28:12;;;;;;;137.63;57.30;;;;;;;;;;5054192;28;20045;-65
2022/03/26 03:30:38;;;;;;;121.38;51.03;;;;;;;;;;5036569;28;20122;-65
2022/03/26 03:33:04;;;;;;;125.47;52.63;;;;;;;;;;5036393;28;20394;-64
2022/03/26 03:35:30;;;;;;;137.40;56.13;;;;;;;;;;5036471;28;20080;-64
2022/03/26 03:37:56;;;;;;;129.48;54.30;;;;;;;;;;5054751;28;20041;-64
2022/03/26 03:40:22;;;;;;;128.80;52.03;;;;;;;;;;5075569;22;20402;-65
2022/03/26 03:45:25;;;;;;;126.80;52.78;;;;;;;;;;5105335;22;20048;-64
2022/03/26 03:47:51;;;;;;;122.55;50.10;;;;;;;;;;5077416;28;20078;-64
2022/03/26 03:50:17;;;;;;;123.28;51.75;;;;;;;;;;5059617;28;20075;-65
2022/03/26 03:52:43;;;;;;;127.10;51.50;;;;;;;;;;5059466;28;20040;-64
2022/03/26 03:55:09;;;;;;;115.47;50.58;;;;;;;;;;5094026;28;20075;-65
2022/03/26 04:00:50;;;;;;;121.95;49.58;;;;;;;;;;5039069;22;20147;-64
2022/03/26 04:03:17;;;;;;;116.47;48.75;;;;;;;;;;5054257;28;20049;-64
2022/03/26 04:05:43;;;;;;;123.35;50.83;;;;;;;;;;5056368;28;20032;-64
2022/03/26 04:08:09;;;;;;;134.52;52.72;;;;;;;;;;5055925;28;20117;-64
2022/03/26 04:10:35;;;;;;;140.73;53.30;;;;;;;;;;5073630;28;20054;-65
2022/03/26 04:13:01;;;;;;;134.13;52.17;;;;;;;;;;5039496;28;20124;-64
2022/03/26 04:15:27;;;;;;;146.02;55.58;;;;;;;;;;5055589;28;20115;-65
2022/03/26 04:17:54;;;;;;;135.65;55.47;;;;;;;;;;5046781;28;20052;-65
2022/03/26 04:20:22;;;;;;;128.77;53.03;;;;;;;;;;5055623;28;20056;-64
2022/03/26 04:22:48;;;;;;;140.88;54.17;;;;;;;;;;5073200;28;20448;-65
2022/03/26 04:25:14;;;;;;;126.57;52.63;;;;;;;;;;5054912;28;20119;-65
2022/03/26 04:27:46;;;;;;;140.15;54.72;;;;;;;;;;5073759;28;20042;-65
2022/03/26 04:30:13;;;;;;;148.60;58.63;;;;;;;;;;5055693;28;20039;-64
2022/03/26 04:32:39;;;;;;;138.43;55.83;;;;;;;;;;5038599;28;20048;-64
2022/03/26 04:35:05;;;;;;;128.77;51.22;;;;;;;;;;5073198;28;20040;-64
2022/03/26 04:37:33;;;;;;;153.75;57.47;;;;;;;;;;5038784;28;20044;-65
2022/03/26 04:39:59;;;;;;;154.13;58.75;;;;;;;;;;5055349;28;20036;-65
2022/03/26 04:42:25;;;;;;;140.38;53.47;;;;;;;;;;5039175;28;20040;-64
2022/03/26 04:44:51;;;;;;;151.90;58.42;;;;;;;;;;5055965;28;20354;-65
2022/03/26 04:47:17;;;;;;;159.80;58.50;;;;;;;;;;5055176;28;20048;-67
2022/03/26 04:49:43;;;;;;;136.77;54.15;;;;;;;;;;5055043;28;20248;-64
2022/03/26 04:52:09;;;;;;;136.52;54.67;;;;;;;;;;5038437;28;20040;-65
2022/03/26 04:54:35;;;;;;;133.85;52.25;;;;;;;;;;5061550;28;20042;-65
2022/03/26 04:57:01;;;;;;;141.35;56.97;;;;;;;;;;5055558;28;20036;-64
2022/03/26 04:59:27;;;;;;;127.78;54.20;;;;;;;;;;5055130;28;20048;-65
2022/03/26 05:01:54;;;;;;;125.93;53.17;;;;;;;;;;5038119;28;20110;-64
2022/03/26 05:04:20;;;;;;;138.90;53.90;;;;;;;;;;5054465;28;20491;-64
2022/03/26 05:06:46;;;;;;;135.60;53.45;;;;;;;;;;5054989;28;20127;-64
2022/03/26 05:09:12;;;;;;;135.05;52.55;;;;;;;;;;5054800;28;20526;-64
2022/03/26 05:11:38;;;;;;;127.70;49.83;;;;;;;;;;5038535;28;20044;-66
2022/03/26 05:14:04;;;;;;;142.77;55.97;;;;;;;;;;5038404;28;20051;-65
2022/03/26 05:16:30;;;;;;;150.00;56.70;;;;;;;;;;5071945;28;20076;-65
2022/03/26 05:18:57;;;;;;;158.43;59.75;;;;;;;;;;5054794;28;20087;-65
2022/03/26 05:21:23;;;;;;;169.13;63.13;;;;;;;;;;5038364;28;20041;-64
2022/03/26 05:23:49;;;;;;;169.02;62.13;;;;;;;;;;5038231;28;20044;-65
2022/03/26 05:26:15;;;;;;;177.20;62.10;;;;;;;;;;5054348;28;20041;-65
2022/03/26 05:28:41;;;;;;;195.00;69.05;;;;;;;;;;5054782;28;20123;-65
2022/03/26 05:31:07;;;;;;;171.05;64.18;;;;;;;;;;5072355;28;20143;-65
2022/03/26 05:33:33;;;;;;;166.45;61.17;;;;;;;;;;5054505;28;20036;-65
2022/03/26 05:35:59;;;;;;;152.23;58.10;;;;;;;;;;5054376;28;20068;-65
2022/03/26 05:38:25;;;;;;;146.88;57.28;;;;;;;;;;5071847;28;20049;-66
2022/03/26 05:40:51;;;;;;;154.05;57.95;;;;;;;;;;5054809;28;20135;-65
2022/03/26 05:43:17;;;;;;;157.23;60.53;;;;;;;;;;5054067;28;20037;-64
2022/03/26 05:45:43;;;;;;;169.25;68.72;;;;;;;;;;5072111;28;20041;-64
2022/03/26 05:48:09;;;;;;;181.65;74.47;;;;;;;;;;5054512;28;20044;-66
2022/03/26 05:50:35;;;;;;;193.90;82.53;;;;;;;;;;5054715;28;20040;-64
2022/03/26 05:53:02;;;;;;;159.55;67.68;;;;;;;;;;5054548;28;20049;-65
2022/03/26 05:55:28;;;;;;;283.83;121.80;;;;;;;;;;5053534;28;20171;-64
2022/03/26 05:57:55;;;;;;;252.43;106.85;;;;;;;;;;5038032;28;20173;-64
2022/03/26 06:00:21;;;;;;;254.90;105.78;;;;;;;;;;5071303;28;20120;-64
2022/03/26 06:02:47;;;;;;;191.77;66.10;;;;;;;;;;5072016;28;20063;-64
2022/03/26 06:05:13;;;;;;;171.35;62.17;;;;;;;;;;5037128;28;20051;-66
2022/03/26 06:07:39;;;;;;;212.30;83.70;;;;;;;;;;5054274;28;20036;-64
2022/03/26 06:10:05;;;;;;;180.02;69.63;;;;;;;;;;5054210;28;20068;-64
2022/03/26 06:12:31;;;;;;;166.82;63.33;;;;;;;;;;5036662;28;20047;-64
2022/03/26 06:14:58;;;;;;;154.95;63.70;;;;;;;;;;5018063;28;20045;-65
2022/03/26 06:17:24;;;;;;;164.55;64.78;;;;;;;;;;5017915;28;20411;-64
2022/03/26 06:19:50;;;;;;;184.13;66.53;;;;;;;;;;5051832;28;20056;-64
2022/03/26 06:22:16;;;;;;;166.70;64.93;;;;;;;;;;5037435;28;20102;-64
2022/03/26 06:24:42;;;;;;;149.40;59.13;;;;;;;;;;5071569;28;20380;-65
2022/03/26 06:27:08;;;;;;;155.52;60.75;;;;;;;;;;5059174;28;20044;-65
2022/03/26 06:29:36;;;;;;;154.25;60.55;;;;;;;;;;5057173;28;20044;-64
2022/03/26 06:32:02;;;;;;;157.80;61.03;;;;;;;;;;5057216;28;20075;-65
2022/03/26 06:34:28;;;;;;;187.15;69.10;;;;;;;;;;5057932;28;20048;-64
2022/03/26 06:36:55;;;;;;;208.98;75.35;;;;;;;;;;5057181;28;20051;-65
2022/03/26 06:39:21;;;;;;;211.57;78.93;;;;;;;;;;5057171;28;20040;-64
2022/03/26 06:41:47;;;;;;;196.40;73.18;;;;;;;;;;5057640;28;20536;-65
2022/03/26 06:44:13;;;;;;;194.23;74.65;;;;;;;;;;5075433;28;20036;-64
2022/03/26 06:46:40;;;;;;;177.07;67.57;;;;;;;;;;5075407;28;20178;-65
2022/03/26 06:49:07;;;;;;;170.30;64.45;;;;;;;;;;5057464;28;20043;-64
2022/03/26 06:51:33;;;;;;;172.93;68.68;;;;;;;;;;5075411;28;20400;-64
2022/03/26 06:54:03;;;;;;;171.35;69.35;;;;;;;;;;5075723;28;20053;-65
2022/03/26 06:56:29;;;;;;;174.70;71.90;;;;;;;;;;5075213;28;20037;-66
2022/03/26 06:58:55;;;;;;;177.32;71.18;;;;;;;;;;5040674;28;20047;-66
2022/03/26 07:01:21;;;;;;;167.45;70.03;;;;;;;;;;5040267;28;20131;-65
2022/03/26 07:03:48;;;;;;;182.20;71.35;;;;;;;;;;5024780;28;20059;-66
2022/03/26 07:06:15;;;;;;;169.10;70.22;;;;;;;;;;5040681;28;20052;-66
2022/03/26 07:08:42;;;;;;;169.90;66.50;;;;;;;;;;5040677;28;20047;-66
2022/03/26 07:11:08;;;;;;;166.13;68.03;;;;;;;;;;5074737;28;20036;-65
2022/03/26 07:13:34;;;;;;;160.25;66.15;;;;;;;;;;5056818;28;20045;-67
2022/03/26 07:16:00;;;;;;;156.38;64.85;;;;;;;;;;5057078;28;20495;-67
2022/03/26 07:18:26;;;;;;;155.27;66.47;;;;;;;;;;5074961;28;20044;-66
2022/03/26 07:20:57;;;;;;;135.13;60.28;;;;;;;;;;5040418;28;20094;-65
2022/03/26 07:23:23;;;;;;;148.32;65.53;;;;;;;;;;5057257;28;20488;-66
2022/03/26 07:25:49;;;;;;;134.75;59.70;;;;;;;;;;5056455;28;20036;-66
2022/03/26 07:28:15;;;;;;;127.57;59.70;;;;;;;;;;5056690;28;20044;-66
2022/03/26 07:30:41;;;;;;;131.05;59.47;;;;;;;;;;5040338;28;20083;-65
2022/03/26 07:33:07;;;;;;;126.28;58.88;;;;;;;;;;5056860;28;20044;-65
2022/03/26 07:35:33;;;;;;;124.18;58.50;;;;;;;;;;5039630;28;20040;-65
2022/03/26 07:37:59;;;;;;;124.70;56.60;;;;;;;;;;5056057;28;20064;-65
2022/03/26 07:40:25;;;;;;;126.75;54.72;;;;;;;;;;5074150;28;20040;-65
2022/03/26 07:42:51;;;;;;;113.00;53.97;;;;;;;;;;5056864;28;20044;-66
2022/03/26 07:45:17;;;;;;;111.07;49.17;;;;;;;;;;5056369;28;20052;-65
2022/03/26 07:47:43;;;;;;;112.03;52.67;;;;;;;;;;5056387;28;20072;-65
2022/03/26 07:50:10;;;;;;;103.82;48.38;;;;;;;;;;5074273;28;20082;-65
2022/03/26 07:52:38;;;;;;;102.50;49.55;;;;;;;;;;5056678;28;20051;-64
2022/03/26 07:55:04;;;;;;;107.15;49.72;;;;;;;;;;5073443;28;20032;-64
2022/03/26 07:57:30;;;;;;;97.05;47.63;;;;;;;;;;5056492;28;20127;-65
2022/03/26 07:59:57;;;;;;;102.68;48.47;;;;;;;;;;5056447;28;20132;-63
2022/03/26 08:02:22;;;;;;;100.40;47.70;;;;;;;;;;5055774;28;20053;-64
2022/03/26 08:04:49;;;;;;;92.50;45.15;;;;;;;;;;5055735;28;20033;-63
2022/03/26 08:07:15;;;;;;;84.15;43.50;;;;;;;;;;5039578;28;20048;-62
2022/03/26 08:09:40;;;;;;;87.65;40.83;;;;;;;;;;5056210;28;20380;-62
2022/03/26 08:12:07;;;;;;;80.43;40.15;;;;;;;;;;5072982;28;20036;-63
2022/03/26 08:14:34;;;;;;;76.00;35.75;;;;;;;;;;5056186;28;20344;-62
2022/03/26 08:17:01;;;;;;;77.90;36.75;;;;;;;;;;5038677;28;20047;-62
2022/03/26 08:19:28;;;;;;;72.18;36.45;;;;;;;;;;5055755;28;20484;-62
2022/03/26 08:21:54;;;;;;;67.50;32.08;;;;;;;;;;5055947;28;20480;-62
2022/03/26 08:24:23;;;;;;;70.82;33.38;;;;;;;;;;5056692;28;20044;-62
2022/03/26 08:26:50;;;;;;;74.55;34.75;;;;;;;;;;5072986;28;20485;-62
2022/03/26 08:29:16;;;;;;;72.22;32.88;;;;;;;;;;5055728;28;20045;-62
2022/03/26 08:31:42;;;;;;;71.28;35.70;;;;;;;;;;5055416;28;20040;-64
2022/03/26 08:34:08;;;;;;;71.53;34.10;;;;;;;;;;5039136;28;20055;-63
2022/03/26 08:36:35;;;;;;;63.97;33.20;;;;;;;;;;5055554;28;20480;-63
2022/03/26 08:39:01;;;;;;;66.13;34.17;;;;;;;;;;5038898;28;20043;-63
2022/03/26 08:41:27;;;;;;;68.35;32.72;;;;;;;;;;5054743;28;20593;-63
2022/03/26 08:43:53;;;;;;;71.93;34.03;;;;;;;;;;5055491;28;20066;-64
2022/03/26 08:46:20;;;;;;;69.78;33.65;;;;;;;;;;5073398;28;20457;-63
2022/03/26 08:48:47;;;;;;;66.75;32.97;;;;;;;;;;5055732;28;20049;-63
2022/03/26 08:51:13;;;;;;;71.15;32.92;;;;;;;;;;5071742;28;20036;-63
2022/03/26 08:53:40;;;;;;;62.88;31.10;;;;;;;;;;5055421;28;20177;-63
2022/03/26 08:56:06;;;;;;;65.47;33.45;;;;;;;;;;5054688;28;20071;-63
2022/03/26 08:58:33;;;;;;;59.42;30.48;;;;;;;;;;5055528;28;20079;-63
2022/03/26 09:00:59;;;;;;;62.05;31.45;;;;;;;;;;5072444;28;20164;-63
2022/03/26 09:03:25;;;;;;;61.65;32.53;;;;;;;;;;5053901;28;20097;-63
2022/03/26 09:05:52;;;;;;;67.25;31.42;;;;;;;;;;5054287;28;20037;-66
2022/03/26 09:08:19;;;;;;;67.75;32.55;;;;;;;;;;5072592;28;20044;-64
2022/03/26 09:10:45;;;;;;;62.83;32.03;;;;;;;;;;5054800;28;20044;-65
2022/03/26 09:13:12;;;;;;;68.32;32.35;;;;;;;;;;5055031;28;20044;-65
2022/03/26 09:15:38;;;;;;;57.63;29.17;;;;;;;;;;5072870;28;20110;-64
2022/03/26 09:18:04;;;;;;;62.55;30.48;;;;;;;;;;5055057;28;20486;-64
2022/03/26 09:20:30;;;;;;;61.55;31.55;;;;;;;;;;5037695;28;20477;-65
2022/03/26 09:22:57;;;;;;;60.05;28.58;;;;;;;;;;5072086;28;20392;-62
2022/03/26 09:25:23;;;;;;;58.22;26.63;;;;;;;;;;5071978;28;20036;-63
2022/03/26 09:27:49;;;;;;;57.90;28.90;;;;;;;;;;5072901;28;20036;-63
2022/03/26 09:30:16;;;;;;;61.20;30.02;;;;;;;;;;5072410;28;20044;-63
2022/03/26 09:32:44;;;;;;;66.00;30.48;;;;;;;;;;5054743;28;20421;-63
2022/03/26 09:35:10;;;;;;;60.85;30.25;;;;;;;;;;5072133;28;20043;-62
2022/03/26 09:37:36;;;;;;;58.78;30.52;;;;;;;;;;5072384;28;20135;-63
2022/03/26 09:40:04;;;;;;;62.67;29.58;;;;;;;;;;5072388;28;20091;-63
2022/03/26 09:42:31;;;;;;;58.33;28.75;;;;;;;;;;5054706;28;20059;-63
2022/03/26 09:44:57;;;;;;;59.33;29.80;;;;;;;;;;5053615;28;20045;-62
2022/03/26 09:47:23;;;;;;;52.30;26.67;;;;;;;;;;5054494;28;20056;-63
2022/03/26 09:49:49;;;;;;;49.40;25.17;;;;;;;;;;5072165;28;20040;-63
2022/03/26 09:52:16;;;;;;;48.75;23.77;;;;;;;;;;5038037;28;20047;-63
2022/03/26 09:54:42;;;;;;;53.95;25.98;;;;;;;;;;5072104;28;20037;-64
2022/03/26 09:57:09;;;;;;;49.58;24.73;;;;;;;;;;5054283;28;20383;-63
2022/03/26 09:59:35;;;;;;;55.55;27.75;;;;;;;;;;5054302;28;20056;-63
2022/03/26 10:02:02;;;;;;;47.35;21.98;;;;;;;;;;5055660;28;20098;-63
2022/03/26 10:04:40;;;;;;;48.05;24.85;;;15.70;99.90;;;;;;5058734;28;20055;-64
2022/03/26 10:07:06;;;;;;;43.08;23.50;;;;;;;;;;5076559;28;20050;-63
2022/03/26 10:09:37;;;;;;;47.20;23.70;;;;;;;;;;5075939;28;20502;-64
2022/03/26 10:12:07;;;;;;;38.17;20.10;;;;;;;;;;5050770;28;20048;-64
2022/03/26 10:14:46;;;;;;;43.55;22.55;;;;;;;;;;5056993;28;20044;-64
2022/03/26 10:17:13;;;;;;;44.03;24.55;;;;;;;;;;5058058;28;20434;-63
2022/03/26 10:19:45;;;;;;;44.15;25.00;;;15.90;99.90;;;;;;5057870;28;20064;-64
2022/03/26 10:22:43;;;;;;;43.65;25.80;;;;;;;;;;5076007;28;20075;-64
2022/03/26 10:25:11;;;;;;;46.63;27.80;;;;;;;;;;5031469;28;20056;-64
2022/03/26 10:27:38;;;;;;;52.00;27.67;;;;;;;;;;5075520;28;20040;-63
2022/03/26 10:30:05;;;;;;;48.25;26.23;;;;;;;;;;5057417;28;20128;-64
2022/03/26 10:32:50;;;;;;;50.40;29.00;;;;;;;;;;5066404;28;20075;-63
2022/03/26 10:35:27;;;;;;;48.97;26.98;;;;;;;;;;5057771;28;20036;-63
2022/03/26 10:38:01;;;;;;;49.53;29.08;;;;;;;;;;5075503;28;20036;-64
2022/03/26 10:40:29;;;;;;;49.22;28.55;;;;;;;;;;5057198;28;20051;-63
2022/03/26 10:42:55;;;;;;;51.30;28.48;;;;;;;;;;5058788;28;20066;-63
2022/03/26 10:48:10;;;;;;;46.55;25.52;;;;;;;;;;5091359;22;20049;-64
2022/03/26 10:50:39;;;;;;;43.33;24.88;;;;;;;;;;5034243;28;20116;-63
2022/03/26 10:53:06;;;;;;;46.03;26.55;;;;;;;;;;5036585;28;20038;-63
2022/03/26 10:55:32;;;;;;;41.40;23.95;;;;;;;;;;5018887;28;20045;-64
2022/03/26 10:58:04;;;;;;;44.42;24.00;;;;;;;;;;5019196;28;20041;-64
2022/03/26 11:00:33;;;;;;;39.15;21.58;;;;;;;;;;5037280;28;20413;-64
2022/03/26 11:03:02;;;;;;;38.47;21.08;;;;;;;;;;5037026;28;20132;-64
2022/03/26 11:05:31;;;;;;;31.42;19.45;;;;;;;;;;5035743;28;20057;-65
2022/03/26 11:08:23;;;;;;;31.83;18.38;;;16.20;99.90;;;;;;5056853;22;20040;-64
2022/03/26 11:10:59;;;;;;;31.98;19.25;;;;;;;;;;5075149;28;20435;-62
2022/03/26 11:13:27;;;;;;;31.67;19.38;;;;;;;;;;5075679;28;20080;-70
2022/03/26 11:15:55;;;;;;;30.83;19.33;;;;;;;;;;5058205;28;20089;-66
2022/03/26 11:18:21;;;;;;;28.67;17.98;;;;;;;;;;5075616;28;20040;-67
2022/03/26 11:21:14;;;;;;;31.40;17.80;;;16.00;99.90;;;;;;5076016;28;20040;-69
2022/03/26 11:23:52;;;;;;;31.70;18.65;;;;;;;;;;5076182;28;20044;-62
2022/03/26 11:26:18;;;;;;;32.40;18.40;;;;;;;;;;5058170;28;20085;-61
2022/03/26 11:28:48;;;;;;;29.00;18.23;;;;;;;;;;5058054;28;20559;-61
2022/03/26 11:31:29;;;;;;;32.38;18.90;;;;;;;;;;5042430;28;20059;-62
2022/03/26 11:34:05;;;;;;;31.08;18.65;;;;;;;;;;5057408;28;20052;-61
2022/03/26 11:36:32;;;;;;;31.25;18.30;;;;;;;;;;5041190;28;20043;-60
2022/03/26 11:39:14;;;;;;;31.23;17.85;;;;;;;;;;5058083;28;20075;-60
2022/03/26 11:41:41;;;;;;;28.75;18.10;;;;;;;;;;5041105;28;20036;-62
2022/03/26 11:44:08;;;;;;;35.20;18.77;;;;;;;;;;5075609;28;20127;-63
2022/03/26 11:52:26;;;;;;;26.67;15.82;;;;;;;;;;5076247;28;20064;-60
2022/03/26 11:55:01;;;;;;;24.17;15.45;;;;;;;;;;5057573;28;20051;-60
2022/03/26 11:57:28;;;;;;;24.83;15.07;;;;;;;;;;5057614;28;20036;-61
2022/03/26 11:59:55;;;;;;;21.95;12.35;;;;;;;;;;5075271;28;20098;-62
2022/03/26 12:02:21;;;;;;;18.58;10.25;;;;;;;;;;5074992;28;20472;-62
2022/03/26 12:04:53;;;;;;;15.63;10.40;;;;;;;;;;5075231;28;20047;-61
2022/03/26 12:07:20;;;;;;;14.98;9.73;;;;;;;;;;5057564;28;20041;-59
2022/03/26 12:09:48;;;;;;;12.95;9.48;;;;;;;;;;5043141;28;20135;-61
2022/03/26 12:12:15;;;;;;;15.95;9.90;;;;;;;;;;5036926;28;20055;-61
2022/03/26 12:15:02;;;;;;;17.33;9.82;;;17.00;99.90;;;;;;5040834;28;20481;-62
2022/03/26 12:17:48;;;;;;;15.57;9.05;;;;;;;;;;5033024;28;20057;-62
2022/03/26 12:20:23;;;;;;;17.60;9.88;;;;;;;;;;5001972;28;20055;-61
2022/03/26 12:23:12;;;;;;;14.05;9.00;;;;;;;;;;5034890;28;20041;-64
2022/03/26 12:25:39;;;;;;;13.60;8.15;;;;;;;;;;5017901;28;20061;-62
2022/03/26 12:28:36;;;;;;;17.58;8.90;;;17.00;99.90;;;;;;5039820;22;20060;-71
2022/03/26 12:31:04;;;;;;;16.35;8.27;;;;;;;;;;5095741;22;20048;-66
2022/03/26 12:33:40;;;;;;;13.32;7.53;;;;;;;;;;5059286;28;20036;-62
2022/03/26 12:36:07;;;;;;;13.50;8.07;;;;;;;;;;5060859;28;20345;-65
2022/03/26 12:38:33;;;;;;;10.77;7.47;;;;;;;;;;5059891;28;20043;-63
2022/03/26 12:41:00;;;;;;;10.55;7.35;;;;;;;;;;5076631;28;20058;-64
2022/03/26 12:43:29;;;;;;;12.77;7.78;;;;;;;;;;5094514;28;20036;-66
2022/03/26 12:45:57;;;;;;;12.35;7.55;;;;;;;;;;5061029;28;20036;-66
2022/03/26 12:48:26;;;;;;;12.57;8.25;;;;;;;;;;5060714;28;20039;-65
2022/03/26 12:50:52;;;;;;;13.38;8.32;;;;;;;;;;5094556;28;20119;-65
2022/03/26 12:53:21;;;;;;;13.57;7.25;;;;;;;;;;5077391;28;20036;-66
2022/03/26 12:55:57;;;;;;;12.65;6.97;;;;;;;;;;5094334;28;20032;-66
2022/03/26 13:01:11;;;;;;;10.13;7.25;;;;;;;;;;5094967;28;20083;-65
2022/03/26 13:03:37;;;;;;;9.43;6.97;;;;;;;;;;5076178;28;20044;-65
2022/03/26 13:06:07;;;;;;;11.55;6.63;;;;;;;;;;5094801;28;20043;-64
2022/03/26 13:08:33;;;;;;;14.60;6.57;;;;;;;;;;5075292;28;20471;-65
2022/03/26 13:11:06;;;;;;;11.75;6.55;;;;;;;;;;5094248;28;20079;-63
2022/03/26 13:13:32;;;;;;;14.90;7.43;;;;;;;;;;5059649;28;20422;-62
2022/03/26 13:16:08;;;;;;;12.52;6.93;;;;;;;;;;5094060;28;20036;-61
2022/03/26 13:19:00;;;;;;;15.93;7.18;;;;;;;;;;5093878;28;20126;-64
2022/03/26 13:21:28;;;;;;;14.57;6.75;;;;;;;;;;5089805;28;20170;-60
2022/03/26 13:23:59;;;;;;;9.93;6.43;;;;;;;;;;5076421;28;20047;-51
2022/03/26 13:26:43;;;;;;;;;;;16.30;99.90;;;;;;5093958;28;20036;-51
2022/03/26 13:29:10;;;;;;;12.80;6.57;;;;;;;;;;5074474;28;20640;-53
2022/03/26 13:31:41;;;;;;;11.30;7.15;;;;;;;;;;5054057;28;20083;-52
2022/03/26 13:34:10;;;;;;;8.35;6.15;;;;;;;;;;5071348;28;20056;-51
2022/03/26 13:36:36;;;;;;;10.75;6.45;;;;;;;;;;5071463;28;20040;-57
2022/03/26 13:39:14;;;;;;;9.00;6.25;;;;;;;;;;5073614;28;20040;-56
2022/03/26 13:41:42;;;;;;;10.18;5.57;;;;;;;;;;5074270;28;20097;-56
2022/03/26 13:44:08;;;;;;;11.32;5.65;;;;;;;;;;5074192;28;20360;-57
2022/03/26 13:46:37;;;;;;;9.15;5.53;;;;;;;;;;5073267;28;20048;-56
2022/03/26 13:49:04;;;;;;;9.43;6.15;;;;;;;;;;5071985;28;20089;-56
2022/03/26 13:51:34;;;;;;;12.98;5.55;;;;;;;;;;5073562;28;20058;-57
2022/03/26 13:54:01;;;;;;;7.72;5.85;;;;;;;;;;5073535;28;20041;-57
2022/03/26 13:56:31;;;;;;;9.00;5.30;;;;;;;;;;5072932;28;20391;-56
2022/03/26 13:59:01;;;;;;;9.05;5.10;;;;;;;;;;5072389;28;20493;-58
2022/03/26 14:01:27;;;;;;;6.60;4.87;;;;;;;;;;5072754;28;20029;-57
2022/03/26 14:03:55;;;;;;;10.48;5.07;;;;;;;;;;5073433;28;20142;-56
2022/03/26 14:06:21;;;;;;;6.65;5.30;;;;;;;;;;5071238;28;20051;-58
2022/03/26 14:08:50;;;;;;;6.57;4.47;;;;;;;;;;5072152;28;20047;-56
2022/03/26 14:11:18;;;;;;;11.05;4.70;;;;;;;;;;5073513;28;20428;-56
2022/03/26 14:13:49;;;;;;;14.82;5.00;;;;;;;;;;5063283;28;20044;-57
2022/03/26 14:16:16;;;;;;;9.80;4.75;;;;;;;;;;5059261;28;20352;-56
2022/03/26 14:18:42;;;;;;;11.05;4.82;;;;;;;;;;5073148;28;20111;-57
2022/03/26 14:21:08;;;;;;;6.90;4.22;;;;;;;;;;5072024;28;20048;-57
2022/03/26 14:23:35;;;;;;;11.55;5.18;;;;;;;;;;5072383;28;20090;-57
2022/03/26 14:26:03;;;;;;;5.47;3.03;;;;;;;;;;5073017;28;20036;-57
2022/03/26 14:28:29;;;;;;;7.38;4.18;;;;;;;;;;5073114;28;20041;-56
2022/03/26 14:30:56;;;;;;;10.73;5.38;;;;;;;;;;5071650;28;20091;-57
2022/03/26 14:33:22;;;;;;;9.00;4.80;;;;;;;;;;5072757;28;20098;-57
2022/03/26 14:35:49;;;;;;;7.10;3.97;;;;;;;;;;5072944;28;20037;-57